Weather at Vancouver International Airport

Public forecast

Using degrees Celsius for public forecast. Weather courtesy of forecast.io.

Current aviation weather report (METAR) for Vancouver International Airport

Retrieved 2021/04/11 09:21 UTC (45 minutes ago):

CYVR 110921Z 04005KT 15SM SKC 02/M03 A3035 RMK SLP280

Aviation forecast (TAF) for Vancouver International Airport

Retrieved 2021/04/11 09:39 UTC (27 minutes ago):

TAF CYVR 110838Z 1109/1212 VRB03KT P6SM SKC FM111200 VRB03KT P6SM SCT015 TEMPO 1112/1120 BKN015 BECMG 1118/1120 29010KT FM112100 29012KT P6SM SKC BECMG 1200/1202 31008KT RMK NXT FCST BY 111200Z